Cherryville, Missouri
Current Conditions -  °F | °C
As of 1:53 PM on Thursday 23 Oct 2014 (Local Time) from KVIH Reporting Station
Overcast Overcast  
Wind Chill: 60°   Ceiling: 8500
Heat Index: 60°   Visibility: 10mi
Dew Point: 46°   Wind: 6mph
Humidity: 60%   Direction: 220°SW
Pressure: 30.13"   Gusts: NA
Location:  37.85°N, 91.28°W
Report Text: KVIH 231853Z AUTO 22005KT 10SM OVC085 16/08 A3013 RMK AO2 SLP202 T01560078
Loading
Personal Weather Stations






























Interactive Weather Map
Tropical Storm Tracking
New forecast layout! Learn more

10-Day Weather Forecast

Advertisements
Track Severe Weather on mobile